sensor_id;sensor_type;location;lat;lon;timestamp;temperature;humidity
22526;DHT22;11429;50.842;4.386;2023-09-12T00:01:34;21.90;99.90
22526;DHT22;11429;50.842;4.386;2023-09-12T00:04:00;22.10;99.90
22526;DHT22;11429;50.842;4.386;2023-09-12T00:06:25;22.40;99.90
22526;DHT22;11429;50.842;4.386;2023-09-12T00:08:51;22.60;99.90
22526;DHT22;11429;50.842;4.386;2023-09-12T00:11:17;22.80;99.90
22526;DHT22;11429;50.842;4.386;2023-09-12T00:13:44;22.90;99.90
22526;DHT22;11429;50.842;4.386;2023-09-12T00:16:10;22.40;99.90
22526;DHT22;11429;50.842;4.386;2023-09-12T00:18:37;22.20;99.90
22526;DHT22;11429;50.842;4.386;2023-09-12T00:21:02;21.80;99.90
22526;DHT22;11429;50.842;4.386;2023-09-12T00:23:28;22.20;99.90
22526;DHT22;11429;50.842;4.386;2023-09-12T00:25:54;22.30;99.90
22526;DHT22;11429;50.842;4.386;2023-09-12T00:28:20;22.50;99.90
22526;DHT22;11429;50.842;4.386;2023-09-12T00:30:46;22.40;99.90
22526;DHT22;11429;50.842;4.386;2023-09-12T00:33:12;22.50;99.90
22526;DHT22;11429;50.842;4.386;2023-09-12T00:35:38;22.60;99.90
22526;DHT22;11429;50.842;4.386;2023-09-12T00:38:03;22.80;99.90
22526;DHT22;11429;50.842;4.386;2023-09-12T00:40:29;22.90;99.90
22526;DHT22;11429;50.842;4.386;2023-09-12T00:42:55;22.90;99.90
22526;DHT22;11429;50.842;4.386;2023-09-12T00:45:21;23.00;99.90
22526;DHT22;11429;50.842;4.386;2023-09-12T00:47:48;23.00;99.90
22526;DHT22;11429;50.842;4.386;2023-09-12T00:50:15;22.90;99.90
22526;DHT22;11429;50.842;4.386;2023-09-12T00:52:42;22.60;99.90
22526;DHT22;11429;50.842;4.386;2023-09-12T00:55:09;22.30;99.90
22526;DHT22;11429;50.842;4.386;2023-09-12T00:57:35;22.30;99.90
22526;DHT22;11429;50.842;4.386;2023-09-12T01:00:05;22.40;99.90
22526;DHT22;11429;50.842;4.386;2023-09-12T01:02:41;22.50;99.90
22526;DHT22;11429;50.842;4.386;2023-09-12T01:05:08;22.60;99.90
22526;DHT22;11429;50.842;4.386;2023-09-12T01:07:36;22.30;99.90
22526;DHT22;11429;50.842;4.386;2023-09-12T01:10:01;22.30;99.90
22526;DHT22;11429;50.842;4.386;2023-09-12T01:12:29;22.30;99.90
22526;DHT22;11429;50.842;4.386;2023-09-12T01:14:55;22.40;99.90
22526;DHT22;11429;50.842;4.386;2023-09-12T01:17:21;22.50;99.90
22526;DHT22;11429;50.842;4.386;2023-09-12T01:19:47;22.50;99.90
22526;DHT22;11429;50.842;4.386;2023-09-12T01:27:52;22.20;99.90
22526;DHT22;11429;50.842;4.386;2023-09-12T01:30:22;22.10;99.90
22526;DHT22;11429;50.842;4.386;2023-09-12T01:32:48;22.20;99.90
22526;DHT22;11429;50.842;4.386;2023-09-12T01:35:15;22.30;99.90
22526;DHT22;11429;50.842;4.386;2023-09-12T01:37:40;22.40;99.90
22526;DHT22;11429;50.842;4.386;2023-09-12T01:40:07;22.30;99.90
22526;DHT22;11429;50.842;4.386;2023-09-12T01:42:37;22.60;99.90
22526;DHT22;11429;50.842;4.386;2023-09-12T01:45:04;22.70;99.90
22526;DHT22;11429;50.842;4.386;2023-09-12T01:47:30;22.60;99.90
22526;DHT22;11429;50.842;4.386;2023-09-12T01:49:57;22.50;99.90
22526;DHT22;11429;50.842;4.386;2023-09-12T01:52:25;22.40;99.90
22526;DHT22;11429;50.842;4.386;2023-09-12T01:54:52;22.50;99.90
22526;DHT22;11429;50.842;4.386;2023-09-12T01:57:18;22.40;99.90
22526;DHT22;11429;50.842;4.386;2023-09-12T01:59:48;22.10;99.90
22526;DHT22;11429;50.842;4.386;2023-09-12T02:02:17;21.90;99.90
22526;DHT22;11429;50.842;4.386;2023-09-12T02:04:52;21.80;99.90
22526;DHT22;11429;50.842;4.386;2023-09-12T02:07:21;21.80;99.90
22526;DHT22;11429;50.842;4.386;2023-09-12T02:09:47;21.80;99.90
22526;DHT22;11429;50.842;4.386;2023-09-12T02:12:12;21.90;99.90
22526;DHT22;11429;50.842;4.386;2023-09-12T02:14:38;22.00;99.90
22526;DHT22;11429;50.842;4.386;2023-09-12T02:17:04;22.00;99.90
22526;DHT22;11429;50.842;4.386;2023-09-12T02:19:29;21.60;99.90
22526;DHT22;11429;50.842;4.386;2023-09-12T02:21:55;21.60;99.90
22526;DHT22;11429;50.842;4.386;2023-09-12T02:24:21;21.70;99.90
22526;DHT22;11429;50.842;4.386;2023-09-12T02:26:47;21.80;99.90
22526;DHT22;11429;50.842;4.386;2023-09-12T02:29:12;21.80;99.90
22526;DHT22;11429;50.842;4.386;2023-09-12T02:31:38;21.70;99.90
22526;DHT22;11429;50.842;4.386;2023-09-12T02:34:04;21.60;99.90
22526;DHT22;11429;50.842;4.386;2023-09-12T02:36:29;21.50;99.90
22526;DHT22;11429;50.842;4.386;2023-09-12T02:38:56;21.70;99.90
22526;DHT22;11429;50.842;4.386;2023-09-12T02:41:22;21.70;99.90
22526;DHT22;11429;50.842;4.386;2023-09-12T02:43:48;21.90;99.90
22526;DHT22;11429;50.842;4.386;2023-09-12T02:46:13;21.90;99.90
22526;DHT22;11429;50.842;4.386;2023-09-12T02:48:39;22.00;99.90
22526;DHT22;11429;50.842;4.386;2023-09-12T02:51:05;21.90;99.90
22526;DHT22;11429;50.842;4.386;2023-09-12T02:53:30;21.60;99.90
22526;DHT22;11429;50.842;4.386;2023-09-12T02:55:56;21.50;99.90
22526;DHT22;11429;50.842;4.386;2023-09-12T02:58:22;21.50;99.90
22526;DHT22;11429;50.842;4.386;2023-09-12T03:00:48;21.60;99.90
22526;DHT22;11429;50.842;4.386;2023-09-12T03:03:15;21.60;99.90
22526;DHT22;11429;50.842;4.386;2023-09-12T03:05:42;21.50;99.90
22526;DHT22;11429;50.842;4.386;2023-09-12T03:08:08;21.40;99.90
22526;DHT22;11429;50.842;4.386;2023-09-12T03:10:33;21.30;99.90
22526;DHT22;11429;50.842;4.386;2023-09-12T03:12:59;21.40;99.90
22526;DHT22;11429;50.842;4.386;2023-09-12T03:15:25;21.20;99.90
22526;DHT22;11429;50.842;4.386;2023-09-12T03:17:50;21.20;99.90
22526;DHT22;11429;50.842;4.386;2023-09-12T03:20:16;21.30;99.90
22526;DHT22;11429;50.842;4.386;2023-09-12T03:22:42;21.50;99.90
22526;DHT22;11429;50.842;4.386;2023-09-12T03:25:08;21.50;99.90
22526;DHT22;11429;50.842;4.386;2023-09-12T03:27:33;21.20;99.90
22526;DHT22;11429;50.842;4.386;2023-09-12T03:29:59;21.20;99.90
22526;DHT22;11429;50.842;4.386;2023-09-12T03:32:25;21.20;99.90
22526;DHT22;11429;50.842;4.386;2023-09-12T03:34:50;21.20;99.90
22526;DHT22;11429;50.842;4.386;2023-09-12T03:37:16;21.40;99.90
22526;DHT22;11429;50.842;4.386;2023-09-12T03:39:42;21.40;99.90
22526;DHT22;11429;50.842;4.386;2023-09-12T03:42:07;21.30;99.90
22526;DHT22;11429;50.842;4.386;2023-09-12T03:44:33;21.60;99.90
22526;DHT22;11429;50.842;4.386;2023-09-12T03:46:59;21.60;99.90
22526;DHT22;11429;50.842;4.386;2023-09-12T03:49:25;21.60;99.90
22526;DHT22;11429;50.842;4.386;2023-09-12T03:51:50;21.60;99.90
22526;DHT22;11429;50.842;4.386;2023-09-12T03:54:16;21.90;99.90
22526;DHT22;11429;50.842;4.386;2023-09-12T03:56:42;21.90;99.90
22526;DHT22;11429;50.842;4.386;2023-09-12T03:59:07;22.10;99.90
22526;DHT22;11429;50.842;4.386;2023-09-12T04:01:33;22.10;99.90
22526;DHT22;11429;50.842;4.386;2023-09-12T04:04:00;22.10;99.90
22526;DHT22;11429;50.842;4.386;2023-09-12T04:06:25;22.30;99.90
22526;DHT22;11429;50.842;4.386;2023-09-12T04:08:51;22.60;99.90
22526;DHT22;11429;50.842;4.386;2023-09-12T04:11:17;22.70;99.90
22526;DHT22;11429;50.842;4.386;2023-09-12T04:13:42;22.70;99.90
22526;DHT22;11429;50.842;4.386;2023-09-12T04:16:09;22.80;99.90
22526;DHT22;11429;50.842;4.386;2023-09-12T04:18:35;22.40;99.90
22526;DHT22;11429;50.842;4.386;2023-09-12T04:21:00;21.80;99.90
22526;DHT22;11429;50.842;4.386;2023-09-12T04:23:26;21.30;99.90
22526;DHT22;11429;50.842;4.386;2023-09-12T04:25:52;21.10;99.90
22526;DHT22;11429;50.842;4.386;2023-09-12T04:28:17;21.00;99.90
22526;DHT22;11429;50.842;4.386;2023-09-12T04:30:43;20.90;99.90
22526;DHT22;11429;50.842;4.386;2023-09-12T04:33:09;20.80;99.90
22526;DHT22;11429;50.842;4.386;2023-09-12T04:35:35;20.80;99.90
22526;DHT22;11429;50.842;4.386;2023-09-12T04:38:01;21.00;99.90
22526;DHT22;11429;50.842;4.386;2023-09-12T04:40:27;21.00;99.90
22526;DHT22;11429;50.842;4.386;2023-09-12T04:42:53;21.50;99.90
22526;DHT22;11429;50.842;4.386;2023-09-12T04:45:19;21.70;99.90
22526;DHT22;11429;50.842;4.386;2023-09-12T04:47:44;21.70;99.90
22526;DHT22;11429;50.842;4.386;2023-09-12T04:50:10;21.30;99.90
22526;DHT22;11429;50.842;4.386;2023-09-12T04:52:37;20.90;99.90
22526;DHT22;11429;50.842;4.386;2023-09-12T04:55:03;20.80;99.90
22526;DHT22;11429;50.842;4.386;2023-09-12T04:57:30;20.80;99.90
22526;DHT22;11429;50.842;4.386;2023-09-12T04:59:56;21.00;99.90
22526;DHT22;11429;50.842;4.386;2023-09-12T05:02:24;21.10;99.90
22526;DHT22;11429;50.842;4.386;2023-09-12T05:04:50;21.10;99.90
22526;DHT22;11429;50.842;4.386;2023-09-12T05:07:16;21.30;99.90
22526;DHT22;11429;50.842;4.386;2023-09-12T05:09:42;21.40;99.90
22526;DHT22;11429;50.842;4.386;2023-09-12T05:12:08;21.50;99.90
22526;DHT22;11429;50.842;4.386;2023-09-12T05:14:33;21.40;99.90
22526;DHT22;11429;50.842;4.386;2023-09-12T05:16:59;21.40;99.90
22526;DHT22;11429;50.842;4.386;2023-09-12T05:19:27;21.40;99.90
22526;DHT22;11429;50.842;4.386;2023-09-12T05:21:52;21.50;99.90
22526;DHT22;11429;50.842;4.386;2023-09-12T05:24:18;21.30;99.90
22526;DHT22;11429;50.842;4.386;2023-09-12T05:26:44;21.40;99.90
22526;DHT22;11429;50.842;4.386;2023-09-12T05:29:10;21.40;99.90
22526;DHT22;11429;50.842;4.386;2023-09-12T05:31:35;21.60;99.90
22526;DHT22;11429;50.842;4.386;2023-09-12T05:34:01;21.70;99.90
22526;DHT22;11429;50.842;4.386;2023-09-12T05:36:27;21.60;99.90
22526;DHT22;11429;50.842;4.386;2023-09-12T05:38:52;21.60;99.90
22526;DHT22;11429;50.842;4.386;2023-09-12T05:41:18;21.60;99.90
22526;DHT22;11429;50.842;4.386;2023-09-12T05:43:44;21.60;99.90
22526;DHT22;11429;50.842;4.386;2023-09-12T05:46:09;21.60;99.90
22526;DHT22;11429;50.842;4.386;2023-09-12T05:48:35;21.60;99.90
22526;DHT22;11429;50.842;4.386;2023-09-12T05:51:01;21.60;99.90
22526;DHT22;11429;50.842;4.386;2023-09-12T05:53:27;21.50;99.90
22526;DHT22;11429;50.842;4.386;2023-09-12T05:55:53;21.70;99.90
22526;DHT22;11429;50.842;4.386;2023-09-12T05:58:19;21.70;99.90
22526;DHT22;11429;50.842;4.386;2023-09-12T06:00:44;21.80;99.90
22526;DHT22;11429;50.842;4.386;2023-09-12T06:03:14;22.00;99.90
22526;DHT22;11429;50.842;4.386;2023-09-12T06:05:40;22.30;99.90
22526;DHT22;11429;50.842;4.386;2023-09-12T06:08:06;22.50;99.90
22526;DHT22;11429;50.842;4.386;2023-09-12T06:10:31;22.80;99.90
22526;DHT22;11429;50.842;4.386;2023-09-12T06:12:57;23.00;99.90
22526;DHT22;11429;50.842;4.386;2023-09-12T06:15:23;23.20;99.90
22526;DHT22;11429;50.842;4.386;2023-09-12T06:17:49;23.10;99.90
22526;DHT22;11429;50.842;4.386;2023-09-12T06:20:15;23.50;99.90
22526;DHT22;11429;50.842;4.386;2023-09-12T06:22:40;24.10;99.90
22526;DHT22;11429;50.842;4.386;2023-09-12T06:25:06;24.00;99.90
22526;DHT22;11429;50.842;4.386;2023-09-12T06:27:32;23.50;99.90
22526;DHT22;11429;50.842;4.386;2023-09-12T06:29:58;23.50;99.90
22526;DHT22;11429;50.842;4.386;2023-09-12T06:32:24;23.60;99.90
22526;DHT22;11429;50.842;4.386;2023-09-12T06:34:49;23.80;99.90
22526;DHT22;11429;50.842;4.386;2023-09-12T06:37:15;24.10;99.90
22526;DHT22;11429;50.842;4.386;2023-09-12T06:39:41;24.50;99.90
22526;DHT22;11429;50.842;4.386;2023-09-12T06:42:07;24.00;99.90
22526;DHT22;11429;50.842;4.386;2023-09-12T06:44:32;23.90;99.90
22526;DHT22;11429;50.842;4.386;2023-09-12T06:46:58;23.60;99.90
22526;DHT22;11429;50.842;4.386;2023-09-12T06:49:24;23.90;99.90
22526;DHT22;11429;50.842;4.386;2023-09-12T06:51:49;23.80;99.90
22526;DHT22;11429;50.842;4.386;2023-09-12T06:54:15;23.90;99.90
22526;DHT22;11429;50.842;4.386;2023-09-12T06:56:41;23.80;99.90
22526;DHT22;11429;50.842;4.386;2023-09-12T06:59:08;23.90;99.90
22526;DHT22;11429;50.842;4.386;2023-09-12T07:01:34;23.80;99.90
22526;DHT22;11429;50.842;4.386;2023-09-12T07:04:00;23.60;99.90
22526;DHT22;11429;50.842;4.386;2023-09-12T07:06:26;23.60;99.90
22526;DHT22;11429;50.842;4.386;2023-09-12T07:08:52;23.60;99.90
22526;DHT22;11429;50.842;4.386;2023-09-12T07:11:18;23.70;99.90
22526;DHT22;11429;50.842;4.386;2023-09-12T07:13:45;23.80;99.90
22526;DHT22;11429;50.842;4.386;2023-09-12T07:16:10;23.20;99.90
22526;DHT22;11429;50.842;4.386;2023-09-12T07:18:37;23.00;99.90
22526;DHT22;11429;50.842;4.386;2023-09-12T07:21:04;22.90;99.90
22526;DHT22;11429;50.842;4.386;2023-09-12T07:23:30;23.10;99.90
22526;DHT22;11429;50.842;4.386;2023-09-12T07:25:57;23.00;99.90
22526;DHT22;11429;50.842;4.386;2023-09-12T07:28:26;23.10;99.90
22526;DHT22;11429;50.842;4.386;2023-09-12T07:30:56;23.30;99.90
22526;DHT22;11429;50.842;4.386;2023-09-12T07:33:22;23.90;99.90
22526;DHT22;11429;50.842;4.386;2023-09-12T07:35:49;24.20;99.90
22526;DHT22;11429;50.842;4.386;2023-09-12T07:38:17;24.30;99.90
22526;DHT22;11429;50.842;4.386;2023-09-12T07:40:43;24.20;99.90
22526;DHT22;11429;50.842;4.386;2023-09-12T07:43:09;24.30;99.90
22526;DHT22;11429;50.842;4.386;2023-09-12T07:45:35;24.50;99.90
22526;DHT22;11429;50.842;4.386;2023-09-12T07:48:06;24.60;99.90
22526;DHT22;11429;50.842;4.386;2023-09-12T07:50:32;24.90;99.90
22526;DHT22;11429;50.842;4.386;2023-09-12T07:52:58;24.90;99.90
22526;DHT22;11429;50.842;4.386;2023-09-12T07:55:24;25.20;99.90
22526;DHT22;11429;50.842;4.386;2023-09-12T07:57:49;25.10;99.90
22526;DHT22;11429;50.842;4.386;2023-09-12T08:00:15;25.10;99.90
22526;DHT22;11429;50.842;4.386;2023-09-12T08:02:42;24.90;99.90
22526;DHT22;11429;50.842;4.386;2023-09-12T08:05:08;25.40;99.90
22526;DHT22;11429;50.842;4.386;2023-09-12T08:07:34;25.10;99.90
22526;DHT22;11429;50.842;4.386;2023-09-12T08:10:00;25.30;99.90
22526;DHT22;11429;50.842;4.386;2023-09-12T08:12:27;25.30;99.90
22526;DHT22;11429;50.842;4.386;2023-09-12T08:14:56;25.70;99.90
22526;DHT22;11429;50.842;4.386;2023-09-12T08:17:23;25.90;99.90
22526;DHT22;11429;50.842;4.386;2023-09-12T08:19:48;25.80;99.90
22526;DHT22;11429;50.842;4.386;2023-09-12T08:22:15;25.80;99.90
22526;DHT22;11429;50.842;4.386;2023-09-12T08:24:41;25.30;99.90
22526;DHT22;11429;50.842;4.386;2023-09-12T08:27:07;25.40;99.90
22526;DHT22;11429;50.842;4.386;2023-09-12T08:29:33;25.70;99.90
22526;DHT22;11429;50.842;4.386;2023-09-12T08:32:00;25.90;99.90
22526;DHT22;11429;50.842;4.386;2023-09-12T08:34:26;25.70;99.90
22526;DHT22;11429;50.842;4.386;2023-09-12T08:36:52;26.00;99.90
22526;DHT22;11429;50.842;4.386;2023-09-12T08:39:26;25.90;99.90
22526;DHT22;11429;50.842;4.386;2023-09-12T08:41:53;25.80;99.90
22526;DHT22;11429;50.842;4.386;2023-09-12T08:44:22;25.80;99.90
22526;DHT22;11429;50.842;4.386;2023-09-12T08:46:48;26.30;99.90
22526;DHT22;11429;50.842;4.386;2023-09-12T08:49:15;26.20;99.90
22526;DHT22;11429;50.842;4.386;2023-09-12T08:51:41;26.20;99.90
22526;DHT22;11429;50.842;4.386;2023-09-12T08:54:07;26.60;99.90
22526;DHT22;11429;50.842;4.386;2023-09-12T08:56:36;26.70;99.90
22526;DHT22;11429;50.842;4.386;2023-09-12T08:59:04;28.40;99.90
22526;DHT22;11429;50.842;4.386;2023-09-12T09:01:31;30.00;99.90
22526;DHT22;11429;50.842;4.386;2023-09-12T09:03:57;31.80;99.90
22526;DHT22;11429;50.842;4.386;2023-09-12T09:06:23;31.00;99.90
22526;DHT22;11429;50.842;4.386;2023-09-12T09:08:50;31.80;99.90
22526;DHT22;11429;50.842;4.386;2023-09-12T09:11:18;30.70;99.90
22526;DHT22;11429;50.842;4.386;2023-09-12T09:13:44;29.20;99.90
22526;DHT22;11429;50.842;4.386;2023-09-12T09:16:14;28.80;99.90
22526;DHT22;11429;50.842;4.386;2023-09-12T09:21:21;28.30;99.90
22526;DHT22;11429;50.842;4.386;2023-09-12T09:23:50;28.00;99.90
22526;DHT22;11429;50.842;4.386;2023-09-12T09:26:16;28.20;99.90
22526;DHT22;11429;50.842;4.386;2023-09-12T09:28:42;28.40;99.90
22526;DHT22;11429;50.842;4.386;2023-09-12T09:31:14;28.50;99.90
22526;DHT22;11429;50.842;4.386;2023-09-12T09:33:40;29.50;99.90
22526;DHT22;11429;50.842;4.386;2023-09-12T09:36:07;29.20;99.90
22526;DHT22;11429;50.842;4.386;2023-09-12T09:38:36;29.90;99.90
22526;DHT22;11429;50.842;4.386;2023-09-12T09:41:08;31.10;99.90
22526;DHT22;11429;50.842;4.386;2023-09-12T09:43:35;31.60;99.90
22526;DHT22;11429;50.842;4.386;2023-09-12T09:46:02;31.80;99.90
22526;DHT22;11429;50.842;4.386;2023-09-12T09:48:28;33.00;99.90
22526;DHT22;11429;50.842;4.386;2023-09-12T09:51:03;33.50;99.90
22526;DHT22;11429;50.842;4.386;2023-09-12T09:53:32;33.40;99.90
22526;DHT22;11429;50.842;4.386;2023-09-12T09:56:16;32.90;99.90
22526;DHT22;11429;50.842;4.386;2023-09-12T09:58:52;33.10;99.90
22526;DHT22;11429;50.842;4.386;2023-09-12T10:01:24;32.20;99.90
22526;DHT22;11429;50.842;4.386;2023-09-12T10:03:52;32.70;99.90
22526;DHT22;11429;50.842;4.386;2023-09-12T10:06:19;34.10;99.90
22526;DHT22;11429;50.842;4.386;2023-09-12T10:08:49;33.50;99.90
22526;DHT22;11429;50.842;4.386;2023-09-12T10:11:18;32.30;99.90
22526;DHT22;11429;50.842;4.386;2023-09-12T10:13:51;33.70;99.90
22526;DHT22;11429;50.842;4.386;2023-09-12T10:16:20;34.40;99.90
22526;DHT22;11429;50.842;4.386;2023-09-12T10:21:30;33.60;99.90
22526;DHT22;11429;50.842;4.386;2023-09-12T10:23:59;33.40;99.90
22526;DHT22;11429;50.842;4.386;2023-09-12T10:26:26;31.80;99.90
22526;DHT22;11429;50.842;4.386;2023-09-12T10:28:54;31.00;99.90
22526;DHT22;11429;50.842;4.386;2023-09-12T10:31:21;30.10;99.90
22526;DHT22;11429;50.842;4.386;2023-09-12T10:33:49;30.10;99.90
22526;DHT22;11429;50.842;4.386;2023-09-12T10:36:18;30.50;99.90
22526;DHT22;11429;50.842;4.386;2023-09-12T10:38:47;31.20;99.90
22526;DHT22;11429;50.842;4.386;2023-09-12T10:41:14;31.50;99.90
22526;DHT22;11429;50.842;4.386;2023-09-12T10:43:41;30.80;99.90
22526;DHT22;11429;50.842;4.386;2023-09-12T10:46:08;29.30;99.90
22526;DHT22;11429;50.842;4.386;2023-09-12T10:48:37;29.90;99.90
22526;DHT22;11429;50.842;4.386;2023-09-12T10:51:07;31.10;99.90
22526;DHT22;11429;50.842;4.386;2023-09-12T10:53:33;31.40;99.90
22526;DHT22;11429;50.842;4.386;2023-09-12T10:56:22;32.40;99.90
22526;DHT22;11429;50.842;4.386;2023-09-12T11:01:34;33.20;99.90
22526;DHT22;11429;50.842;4.386;2023-09-12T11:06:46;32.90;99.90
22526;DHT22;11429;50.842;4.386;2023-09-12T11:11:49;33.60;99.90
22526;DHT22;11429;50.842;4.386;2023-09-12T11:14:19;34.00;99.90
22526;DHT22;11429;50.842;4.386;2023-09-12T11:19:47;33.40;99.90
22526;DHT22;11429;50.842;4.386;2023-09-12T11:22:29;33.50;99.90
22526;DHT22;11429;50.842;4.386;2023-09-12T11:24:56;34.40;99.90
22526;DHT22;11429;50.842;4.386;2023-09-12T11:28:02;34.30;99.90
22526;DHT22;11429;50.842;4.386;2023-09-12T11:30:29;33.50;99.90
22526;DHT22;11429;50.842;4.386;2023-09-12T11:32:58;33.40;99.90
22526;DHT22;11429;50.842;4.386;2023-09-12T11:35:27;33.90;99.90
22526;DHT22;11429;50.842;4.386;2023-09-12T11:37:56;34.50;99.90
22526;DHT22;11429;50.842;4.386;2023-09-12T11:43:03;33.80;99.90
22526;DHT22;11429;50.842;4.386;2023-09-12T11:45:30;32.30;99.90
22526;DHT22;11429;50.842;4.386;2023-09-12T11:47:57;30.80;99.90
22526;DHT22;11429;50.842;4.386;2023-09-12T11:50:34;29.80;99.90
22526;DHT22;11429;50.842;4.386;2023-09-12T11:53:05;31.00;99.90
22526;DHT22;11429;50.842;4.386;2023-09-12T11:55:37;30.60;99.90
22526;DHT22;11429;50.842;4.386;2023-09-12T11:58:03;30.20;99.90
22526;DHT22;11429;50.842;4.386;2023-09-12T12:00:29;30.10;99.90
22526;DHT22;11429;50.842;4.386;2023-09-12T12:02:57;31.10;99.90
22526;DHT22;11429;50.842;4.386;2023-09-12T12:05:23;32.20;99.90
22526;DHT22;11429;50.842;4.386;2023-09-12T12:07:49;31.20;99.90
22526;DHT22;11429;50.842;4.386;2023-09-12T12:10:17;31.50;99.90
22526;DHT22;11429;50.842;4.386;2023-09-12T12:12:44;31.50;99.90
22526;DHT22;11429;50.842;4.386;2023-09-12T12:15:12;31.50;99.90
22526;DHT22;11429;50.842;4.386;2023-09-12T12:17:40;31.40;99.90
22526;DHT22;11429;50.842;4.386;2023-09-12T12:20:10;31.10;99.90
22526;DHT22;11429;50.842;4.386;2023-09-12T12:22:40;31.40;99.90
22526;DHT22;11429;50.842;4.386;2023-09-12T12:25:10;31.40;99.90
22526;DHT22;11429;50.842;4.386;2023-09-12T12:27:41;30.50;99.90
22526;DHT22;11429;50.842;4.386;2023-09-12T12:30:12;30.00;99.90
22526;DHT22;11429;50.842;4.386;2023-09-12T12:32:41;30.00;99.90
22526;DHT22;11429;50.842;4.386;2023-09-12T12:35:08;30.10;99.90
22526;DHT22;11429;50.842;4.386;2023-09-12T12:37:36;30.20;99.90
22526;DHT22;11429;50.842;4.386;2023-09-12T12:40:03;30.10;99.90
22526;DHT22;11429;50.842;4.386;2023-09-12T12:42:34;29.60;99.90
22526;DHT22;11429;50.842;4.386;2023-09-12T12:45:00;29.20;99.90
22526;DHT22;11429;50.842;4.386;2023-09-12T12:47:26;28.40;99.90
22526;DHT22;11429;50.842;4.386;2023-09-12T12:49:53;27.90;99.90
22526;DHT22;11429;50.842;4.386;2023-09-12T12:52:23;27.90;99.90
22526;DHT22;11429;50.842;4.386;2023-09-12T12:54:49;27.70;99.90
22526;DHT22;11429;50.842;4.386;2023-09-12T12:57:19;28.00;99.90
22526;DHT22;11429;50.842;4.386;2023-09-12T12:59:49;28.20;99.90
22526;DHT22;11429;50.842;4.386;2023-09-12T13:02:16;28.20;99.90
22526;DHT22;11429;50.842;4.386;2023-09-12T13:04:42;27.90;99.90
22526;DHT22;11429;50.842;4.386;2023-09-12T13:07:08;27.70;99.90
22526;DHT22;11429;50.842;4.386;2023-09-12T13:09:33;27.90;99.90
22526;DHT22;11429;50.842;4.386;2023-09-12T13:11:59;28.10;99.90
22526;DHT22;11429;50.842;4.386;2023-09-12T13:14:25;28.20;99.90
22526;DHT22;11429;50.842;4.386;2023-09-12T13:16:59;28.40;99.90
22526;DHT22;11429;50.842;4.386;2023-09-12T13:19:26;28.20;99.90
22526;DHT22;11429;50.842;4.386;2023-09-12T13:21:52;27.90;99.90
22526;DHT22;11429;50.842;4.386;2023-09-12T13:24:17;27.70;99.90
22526;DHT22;11429;50.842;4.386;2023-09-12T13:26:43;27.50;99.90
22526;DHT22;11429;50.842;4.386;2023-09-12T13:29:09;27.30;99.90
22526;DHT22;11429;50.842;4.386;2023-09-12T13:31:35;27.40;99.90
22526;DHT22;11429;50.842;4.386;2023-09-12T13:34:01;27.00;99.90
22526;DHT22;11429;50.842;4.386;2023-09-12T13:36:28;26.80;99.90
22526;DHT22;11429;50.842;4.386;2023-09-12T13:38:54;26.70;99.90
22526;DHT22;11429;50.842;4.386;2023-09-12T13:41:19;27.10;99.90
22526;DHT22;11429;50.842;4.386;2023-09-12T13:43:47;27.20;99.90
22526;DHT22;11429;50.842;4.386;2023-09-12T13:46:13;26.80;99.90
22526;DHT22;11429;50.842;4.386;2023-09-12T13:48:39;26.60;99.90
22526;DHT22;11429;50.842;4.386;2023-09-12T13:51:05;26.60;99.90
22526;DHT22;11429;50.842;4.386;2023-09-12T13:53:31;26.80;99.90
22526;DHT22;11429;50.842;4.386;2023-09-12T13:55:57;26.80;99.90
22526;DHT22;11429;50.842;4.386;2023-09-12T13:58:24;26.80;99.90
22526;DHT22;11429;50.842;4.386;2023-09-12T14:00:49;26.60;99.90
22526;DHT22;11429;50.842;4.386;2023-09-12T14:03:15;26.60;99.90
22526;DHT22;11429;50.842;4.386;2023-09-12T14:05:41;26.40;99.90
22526;DHT22;11429;50.842;4.386;2023-09-12T14:08:07;26.50;99.90
22526;DHT22;11429;50.842;4.386;2023-09-12T14:10:32;26.60;99.90
22526;DHT22;11429;50.842;4.386;2023-09-12T14:12:58;26.70;99.90
22526;DHT22;11429;50.842;4.386;2023-09-12T14:15:24;26.40;99.90
22526;DHT22;11429;50.842;4.386;2023-09-12T14:17:51;26.50;99.90
22526;DHT22;11429;50.842;4.386;2023-09-12T14:20:17;26.60;99.90
22526;DHT22;11429;50.842;4.386;2023-09-12T14:22:43;26.40;99.90
22526;DHT22;11429;50.842;4.386;2023-09-12T14:25:09;26.40;99.90
22526;DHT22;11429;50.842;4.386;2023-09-12T14:27:40;26.10;99.90
22526;DHT22;11429;50.842;4.386;2023-09-12T14:30:07;26.40;99.90
22526;DHT22;11429;50.842;4.386;2023-09-12T14:32:33;26.40;99.90
22526;DHT22;11429;50.842;4.386;2023-09-12T14:34:58;26.30;99.90
22526;DHT22;11429;50.842;4.386;2023-09-12T14:37:24;26.40;99.90
22526;DHT22;11429;50.842;4.386;2023-09-12T14:39:55;26.20;99.90
22526;DHT22;11429;50.842;4.386;2023-09-12T14:42:21;26.30;99.90
22526;DHT22;11429;50.842;4.386;2023-09-12T14:44:48;26.70;99.90
22526;DHT22;11429;50.842;4.386;2023-09-12T14:47:13;26.60;99.90
22526;DHT22;11429;50.842;4.386;2023-09-12T14:49:39;26.20;99.90
22526;DHT22;11429;50.842;4.386;2023-09-12T14:52:05;26.00;99.90
22526;DHT22;11429;50.842;4.386;2023-09-12T14:54:31;26.10;99.90
22526;DHT22;11429;50.842;4.386;2023-09-12T14:56:56;26.00;99.90
22526;DHT22;11429;50.842;4.386;2023-09-12T14:59:22;26.40;99.90
22526;DHT22;11429;50.842;4.386;2023-09-12T15:01:48;26.00;99.90
22526;DHT22;11429;50.842;4.386;2023-09-12T15:04:13;25.90;99.90
22526;DHT22;11429;50.842;4.386;2023-09-12T15:06:40;25.90;99.90
22526;DHT22;11429;50.842;4.386;2023-09-12T15:09:05;25.70;99.90
22526;DHT22;11429;50.842;4.386;2023-09-12T15:11:31;25.70;99.90
22526;DHT22;11429;50.842;4.386;2023-09-12T15:13:58;25.50;99.90
22526;DHT22;11429;50.842;4.386;2023-09-12T15:16:25;25.40;99.90
22526;DHT22;11429;50.842;4.386;2023-09-12T15:18:52;25.50;99.90
22526;DHT22;11429;50.842;4.386;2023-09-12T15:21:18;25.40;99.90
22526;DHT22;11429;50.842;4.386;2023-09-12T15:23:44;25.40;99.90
22526;DHT22;11429;50.842;4.386;2023-09-12T15:26:09;25.40;99.90
22526;DHT22;11429;50.842;4.386;2023-09-12T15:28:35;25.40;99.90
22526;DHT22;11429;50.842;4.386;2023-09-12T15:31:01;25.60;99.90
22526;DHT22;11429;50.842;4.386;2023-09-12T15:33:29;25.60;99.90
22526;DHT22;11429;50.842;4.386;2023-09-12T15:35:55;25.40;99.90
22526;DHT22;11429;50.842;4.386;2023-09-12T15:38:21;25.30;99.90
22526;DHT22;11429;50.842;4.386;2023-09-12T15:40:46;25.40;99.90
22526;DHT22;11429;50.842;4.386;2023-09-12T15:43:12;25.20;99.90
22526;DHT22;11429;50.842;4.386;2023-09-12T15:45:38;25.10;99.90
22526;DHT22;11429;50.842;4.386;2023-09-12T15:48:04;25.10;99.90
22526;DHT22;11429;50.842;4.386;2023-09-12T15:50:30;25.30;99.90
22526;DHT22;11429;50.842;4.386;2023-09-12T15:52:56;25.40;99.90